createdAt,value
2023-04-02T00:08:48.073Z,5.6
2023-04-02T00:18:50.490Z,5.5
2023-04-02T00:28:52.589Z,5.3
2023-04-02T00:38:54.581Z,5.3
2023-04-02T00:48:56.975Z,5.2
2023-04-02T00:58:58.802Z,5.2
2023-04-02T01:09:01.347Z,5
2023-04-02T01:19:03.421Z,4.9
2023-04-02T01:29:05.067Z,4.8
2023-04-02T01:39:06.829Z,4.7
2023-04-02T01:49:08.719Z,4.7
2023-04-02T01:59:10.659Z,4.7
2023-04-02T02:09:12.404Z,4.6
2023-04-02T02:19:14.730Z,4.5
2023-04-02T02:29:16.526Z,4.3
2023-04-02T02:39:18.675Z,4.1
2023-04-02T02:49:20.592Z,4
2023-04-02T02:59:22.929Z,3.9
2023-04-02T03:19:26.664Z,3.8
2023-04-02T03:29:29.293Z,3.8
2023-04-02T03:39:31.356Z,3.8
2023-04-02T03:49:33.839Z,3.8
2023-04-02T03:59:36.450Z,3.7
2023-04-02T04:09:38.630Z,3.5
2023-04-02T04:19:41.044Z,3.3
2023-04-02T04:29:43.092Z,3.3
2023-04-02T04:39:45.077Z,3.3
2023-04-02T04:49:46.720Z,3.3
2023-04-02T04:59:48.598Z,3.2
2023-04-02T05:09:51.167Z,3.2
2023-04-02T05:19:53.511Z,3.1
2023-04-02T05:29:55.678Z,3.1
2023-04-02T05:39:58.248Z,3
2023-04-02T05:50:00.177Z,3
2023-04-02T06:00:02.173Z,2.9
2023-04-02T06:10:04.264Z,2.8
2023-04-02T06:20:06.319Z,2.8
2023-04-02T06:30:08.291Z,2.9
2023-04-02T06:40:10.490Z,2.8
2023-04-02T06:50:13.175Z,2.8
2023-04-02T07:00:14.939Z,2.8
2023-04-02T07:10:17.226Z,2.8
2023-04-02T07:20:19.808Z,2.8
2023-04-02T07:30:21.852Z,2.8
2023-04-02T07:40:23.659Z,2.8
2023-04-02T07:50:26.257Z,3
2023-04-02T08:00:27.973Z,3
2023-04-02T08:10:29.961Z,3.1
2023-04-02T08:20:32.090Z,3.1
2023-04-02T08:30:34.135Z,3.2
2023-04-02T08:40:36.296Z,3.3
2023-04-02T08:50:38.884Z,3.4
2023-04-02T09:00:41.235Z,3.5
2023-04-02T09:10:43.486Z,3.4
2023-04-02T09:20:45.905Z,3.5
2023-04-02T09:30:47.695Z,3.7
2023-04-02T09:40:50.314Z,3.8
2023-04-02T09:50:52.962Z,3.9
2023-04-02T10:00:54.991Z,3.8
2023-04-02T10:10:56.812Z,3.7
2023-04-02T10:20:59.349Z,3.9
2023-04-02T10:41:03.146Z,4.1
2023-04-02T10:51:05.511Z,4.4
2023-04-02T11:01:07.565Z,4.2
2023-04-02T11:11:09.669Z,4.5
2023-04-02T11:21:11.856Z,4.3
2023-04-02T11:31:13.868Z,4.6
2023-04-02T11:41:15.685Z,4.7
2023-04-02T11:51:18.866Z,4.7
2023-04-02T12:01:19.788Z,4.9
2023-04-02T12:11:22.077Z,5.1
2023-04-02T12:21:24.053Z,5.5
2023-04-02T12:31:26.332Z,5.9
2023-04-02T12:41:28.018Z,6.3
2023-04-02T12:51:30.561Z,7.2
2023-04-02T13:01:33.107Z,6.9
2023-04-02T13:11:34.904Z,8.2
2023-04-02T13:31:39.123Z,7.2
2023-04-02T13:41:41.393Z,7.3
2023-04-02T13:51:43.738Z,7.2
2023-04-02T14:01:45.938Z,7.8
2023-04-02T14:11:48.326Z,6.7
2023-04-02T14:21:50.970Z,7.9
2023-04-02T14:41:55.334Z,8
2023-04-02T14:51:57.054Z,7.2
2023-04-02T15:12:01.309Z,6.6
2023-04-02T15:22:07.496Z,6.6
2023-04-02T15:32:04.993Z,6.8
2023-04-02T15:42:07.092Z,7.1
2023-04-02T15:52:08.859Z,6.9
2023-04-02T16:02:11.332Z,7
2023-04-02T16:12:13.054Z,6.8
2023-04-02T16:22:15.287Z,6.7
2023-04-02T16:42:19.772Z,6.8
2023-04-02T16:52:22.301Z,6.7
2023-04-02T17:02:24.405Z,6.8
2023-04-02T17:12:26.674Z,6.7
2023-04-02T17:22:28.428Z,6.5
2023-04-02T17:32:30.176Z,6.4
2023-04-02T17:42:32.102Z,6.3
2023-04-02T18:02:37.160Z,5.8
2023-04-02T18:32:42.969Z,5.3
2023-04-02T18:33:04.858Z,5.3
2023-04-02T18:52:54.304Z,4.3
2023-04-02T19:02:56.371Z,4.1
2023-04-02T19:12:58.232Z,3.9
2023-04-02T19:23:00.647Z,3.4
2023-04-02T19:33:02.599Z,3.3
2023-04-02T19:43:04.590Z,3.1
2023-04-02T19:53:07.127Z,2.5
2023-04-02T20:03:09.182Z,2.4
2023-04-02T20:23:13.786Z,2.2
2023-04-02T20:33:16.239Z,2.2
2023-04-02T20:43:18.290Z,2.4
2023-04-02T20:53:20.208Z,2.5
2023-04-02T21:03:22.530Z,2.2
2023-04-02T21:23:27.664Z,2.1
2023-04-02T21:33:29.536Z,2
2023-04-02T21:43:31.556Z,2
2023-04-02T22:03:36.715Z,1.4
2023-04-02T22:13:39.305Z,1.3
2023-04-02T22:23:41.039Z,1.1
2023-04-02T22:33:43.477Z,0.9
2023-04-02T22:43:45.632Z,0.8
2023-04-02T22:53:47.355Z,0.7
2023-04-02T23:03:49.451Z,1
2023-04-02T23:13:51.171Z,0.7
2023-04-02T23:23:53.092Z,0.7
2023-04-02T23:33:55.513Z,0.2
2023-04-02T23:43:57.683Z,0.1
2023-04-02T23:53:59.610Z,0
